createdAt,value
2022-12-16T00:09:43.365Z,24.33
2022-12-16T00:19:44.825Z,26.23
2022-12-16T00:29:46.298Z,22.93
2022-12-16T00:39:47.784Z,26.57
2022-12-16T00:49:49.223Z,26.67
2022-12-16T00:59:50.667Z,26.17
2022-12-16T01:09:52.572Z,26.83
2022-12-16T01:19:56.446Z,27.43
2022-12-16T01:29:57.927Z,28.17
2022-12-16T01:39:59.353Z,28.47
2022-12-16T01:50:15.374Z,29.27
2022-12-16T02:00:17.116Z,29.57
2022-12-16T02:10:21.120Z,29.80
2022-12-16T02:20:44.831Z,27.63
2022-12-16T02:31:08.626Z,30.23
2022-12-16T02:41:21.760Z,30.23
2022-12-16T02:51:26.890Z,28.47
2022-12-16T03:01:48.027Z,30.03
2022-12-16T03:11:52.139Z,29.17
2022-12-16T03:22:12.645Z,29.90
2022-12-16T03:32:23.481Z,31.67
2022-12-16T03:42:25.575Z,32.07
2022-12-16T03:52:27.077Z,34.20
2022-12-16T04:02:28.605Z,34.13
2022-12-16T04:12:48.847Z,33.53
2022-12-16T04:23:08.730Z,34.47
2022-12-16T04:33:32.485Z,34.10
2022-12-16T04:43:52.843Z,33.27
2022-12-16T04:54:13.192Z,34.13
2022-12-16T05:04:33.905Z,34.43
2022-12-16T05:14:54.555Z,33.63
2022-12-16T05:25:14.523Z,34.20
2022-12-16T05:35:34.457Z,31.93
2022-12-16T05:45:54.401Z,31.80
2022-12-16T05:56:15.041Z,34.33
2022-12-16T06:06:34.931Z,31.90
2022-12-16T06:16:55.007Z,29.77
2022-12-16T06:27:15.164Z,32.10
2022-12-16T06:37:35.726Z,30.40
2022-12-16T06:47:57.898Z,30.10
2022-12-16T06:58:18.424Z,29.60
2022-12-16T07:08:38.341Z,29.50
2022-12-16T07:18:58.321Z,27.20
2022-12-16T07:29:18.223Z,25.33
2022-12-16T07:39:38.714Z,26.23
2022-12-16T07:49:59.001Z,28.07
2022-12-16T08:00:19.367Z,26.27
2022-12-16T08:10:39.441Z,26.43
2022-12-16T08:20:59.369Z,25.83
2022-12-16T08:31:19.344Z,27.30
2022-12-16T08:41:39.692Z,26.17
2022-12-16T08:51:59.751Z,27.70
2022-12-16T09:02:20.109Z,25.73
2022-12-16T09:12:40.165Z,24.07
2022-12-16T09:23:00.115Z,25.03
2022-12-16T09:33:21.156Z,24.87
2022-12-16T09:44:06.536Z,25.67
2022-12-16T09:54:30.923Z,24.17
2022-12-16T10:04:50.900Z,23.63
2022-12-16T10:15:33.438Z,22.10
2022-12-16T10:26:02.908Z,23.87
2022-12-16T10:36:24.420Z,23.73
2022-12-16T10:46:48.073Z,24.50
2022-12-16T10:57:24.153Z,21.80
2022-12-16T11:07:50.000Z,22.20
2022-12-16T11:18:24.321Z,21.20
2022-12-16T11:28:44.013Z,20.70
2022-12-16T11:39:09.004Z,19.80
2022-12-16T11:49:44.190Z,18.47
2022-12-16T12:00:11.566Z,17.93
2022-12-16T12:10:46.712Z,18.37
2022-12-16T12:21:48.507Z,18.57
2022-12-16T12:32:21.986Z,18.57
2022-12-16T12:42:49.833Z,15.80
2022-12-16T12:53:35.839Z,15.57
2022-12-16T13:04:15.058Z,15.73
2022-12-16T13:14:50.466Z,18.53
2022-12-16T13:25:12.375Z,18.07
2022-12-16T13:35:32.137Z,15.80
2022-12-16T13:45:54.947Z,16.03
2022-12-16T13:56:18.448Z,14.73
2022-12-16T14:06:42.946Z,14.30
2022-12-16T14:17:19.381Z,13.17
2022-12-16T14:27:40.786Z,15.00
2022-12-16T14:38:00.702Z,9.53
2022-12-16T14:48:21.004Z,9.23
2022-12-16T14:58:42.854Z,9.00
2022-12-16T15:09:15.276Z,8.10
2022-12-16T15:19:39.844Z,8.00
2022-12-16T15:30:00.825Z,9.07
2022-12-16T15:40:21.910Z,10.47
2022-12-16T15:50:45.491Z,10.60
2022-12-16T16:01:16.589Z,14.30
2022-12-16T16:11:37.045Z,14.93
2022-12-16T16:21:57.068Z,15.97
2022-12-16T16:32:17.131Z,15.87
2022-12-16T16:42:37.451Z,18.27
2022-12-16T16:52:57.388Z,17.70
2022-12-16T17:03:17.381Z,16.07
2022-12-16T17:13:37.538Z,20.27
2022-12-16T17:23:58.584Z,19.77
2022-12-16T17:34:18.577Z,18.93
2022-12-16T17:44:38.628Z,19.37
2022-12-16T17:54:58.964Z,21.20
2022-12-16T18:05:18.890Z,20.50
2022-12-16T18:15:41.375Z,19.07
2022-12-16T18:26:15.032Z,21.50
2022-12-16T18:36:35.325Z,20.13
2022-12-16T18:46:55.265Z,20.83
2022-12-16T18:57:18.296Z,22.87
2022-12-16T19:07:38.182Z,22.00
2022-12-16T19:17:58.237Z,21.80
2022-12-16T19:28:18.468Z,21.67
2022-12-16T19:38:40.103Z,22.77
2022-12-16T19:49:00.439Z,22.47
2022-12-16T19:59:20.655Z,24.33
2022-12-16T20:09:40.846Z,24.00
2022-12-16T20:20:00.981Z,23.07
2022-12-16T20:30:22.180Z,23.17
2022-12-16T20:40:42.161Z,21.67
2022-12-16T20:51:02.405Z,26.40
2022-12-16T21:01:22.943Z,23.03
2022-12-16T21:11:43.123Z,26.97
2022-12-16T21:22:03.568Z,26.37
2022-12-16T21:32:23.479Z,24.90
2022-12-16T21:42:44.517Z,26.43
2022-12-16T21:53:06.789Z,23.40
2022-12-16T22:03:26.750Z,25.27
2022-12-16T22:13:49.105Z,24.13
2022-12-16T22:24:09.448Z,27.43
2022-12-16T22:34:29.628Z,25.13
2022-12-16T22:44:49.576Z,23.47
2022-12-16T22:55:09.717Z,24.33
2022-12-16T23:05:31.464Z,23.33
2022-12-16T23:15:52.008Z,31.83
2022-12-16T23:26:17.386Z,32.43
2022-12-16T23:36:37.745Z,33.13
2022-12-16T23:46:58.151Z,34.40
2022-12-16T23:57:18.345Z,26.70
